sensor_id;sensor_type;location;lat;lon;timestamp;P1;durP1;ratioP1;P2;durP2;ratioP2
5684;SDS011;2865;53.114;9.130;2023-08-06T00:02:23;3.07;;;2.87;;
5684;SDS011;2865;53.114;9.130;2023-08-06T00:04:48;3.60;;;3.30;;
5684;SDS011;2865;53.114;9.130;2023-08-06T00:07:14;3.20;;;2.90;;
5684;SDS011;2865;53.114;9.130;2023-08-06T00:09:39;3.20;;;3.00;;
5684;SDS011;2865;53.114;9.130;2023-08-06T00:12:05;3.27;;;2.97;;
5684;SDS011;2865;53.114;9.130;2023-08-06T00:14:30;2.83;;;2.63;;
5684;SDS011;2865;53.114;9.130;2023-08-06T00:16:56;3.37;;;3.07;;
5684;SDS011;2865;53.114;9.130;2023-08-06T00:19:21;3.20;;;3.00;;
5684;SDS011;2865;53.114;9.130;2023-08-06T00:21:46;3.60;;;3.30;;
5684;SDS011;2865;53.114;9.130;2023-08-06T00:24:12;3.20;;;3.00;;
5684;SDS011;2865;53.114;9.130;2023-08-06T00:26:37;3.17;;;2.97;;
5684;SDS011;2865;53.114;9.130;2023-08-06T00:29:03;3.73;;;3.20;;
5684;SDS011;2865;53.114;9.130;2023-08-06T00:31:28;3.23;;;2.93;;
5684;SDS011;2865;53.114;9.130;2023-08-06T00:33:53;3.30;;;3.00;;
5684;SDS011;2865;53.114;9.130;2023-08-06T00:36:19;3.17;;;2.90;;
5684;SDS011;2865;53.114;9.130;2023-08-06T00:38:44;5.40;;;2.90;;
5684;SDS011;2865;53.114;9.130;2023-08-06T00:41:10;2.73;;;2.53;;
5684;SDS011;2865;53.114;9.130;2023-08-06T00:43:35;2.90;;;2.70;;
5684;SDS011;2865;53.114;9.130;2023-08-06T00:46:00;3.17;;;2.87;;
5684;SDS011;2865;53.114;9.130;2023-08-06T00:48:26;2.80;;;2.20;;
5684;SDS011;2865;53.114;9.130;2023-08-06T00:50:51;2.60;;;2.40;;
5684;SDS011;2865;53.114;9.130;2023-08-06T00:53:16;2.90;;;2.70;;
5684;SDS011;2865;53.114;9.130;2023-08-06T00:55:43;2.83;;;2.63;;
5684;SDS011;2865;53.114;9.130;2023-08-06T00:58:07;2.87;;;2.67;;
5684;SDS011;2865;53.114;9.130;2023-08-06T01:00:33;2.90;;;2.57;;
5684;SDS011;2865;53.114;9.130;2023-08-06T01:02:58;2.43;;;2.23;;
5684;SDS011;2865;53.114;9.130;2023-08-06T01:05:23;3.23;;;2.83;;
5684;SDS011;2865;53.114;9.130;2023-08-06T01:08:01;2.70;;;2.50;;
5684;SDS011;2865;53.114;9.130;2023-08-06T01:13:29;3.73;;;3.00;;
5684;SDS011;2865;53.114;9.130;2023-08-06T01:15:58;2.63;;;2.40;;
5684;SDS011;2865;53.114;9.130;2023-08-06T01:18:23;3.03;;;2.80;;
5684;SDS011;2865;53.114;9.130;2023-08-06T01:20:48;3.67;;;3.30;;
5684;SDS011;2865;53.114;9.130;2023-08-06T01:23:14;3.27;;;3.07;;
5684;SDS011;2865;53.114;9.130;2023-08-06T01:25:43;3.10;;;2.83;;
5684;SDS011;2865;53.114;9.130;2023-08-06T01:28:23;3.33;;;3.13;;
5684;SDS011;2865;53.114;9.130;2023-08-06T01:30:53;4.40;;;4.00;;
5684;SDS011;2865;53.114;9.130;2023-08-06T01:33:19;3.20;;;3.00;;
5684;SDS011;2865;53.114;9.130;2023-08-06T01:35:43;3.37;;;3.07;;
5684;SDS011;2865;53.114;9.130;2023-08-06T01:38:09;3.93;;;3.63;;
5684;SDS011;2865;53.114;9.130;2023-08-06T01:40:34;3.40;;;3.20;;
5684;SDS011;2865;53.114;9.130;2023-08-06T01:42:59;3.67;;;3.37;;
5684;SDS011;2865;53.114;9.130;2023-08-06T01:45:25;3.67;;;3.37;;
5684;SDS011;2865;53.114;9.130;2023-08-06T01:47:50;4.27;;;3.23;;
5684;SDS011;2865;53.114;9.130;2023-08-06T01:50:16;3.97;;;3.57;;
5684;SDS011;2865;53.114;9.130;2023-08-06T01:52:41;3.60;;;3.30;;
5684;SDS011;2865;53.114;9.130;2023-08-06T01:55:06;7.00;;;3.80;;
5684;SDS011;2865;53.114;9.130;2023-08-06T01:57:32;4.33;;;3.93;;
5684;SDS011;2865;53.114;9.130;2023-08-06T01:59:57;3.70;;;3.40;;
5684;SDS011;2865;53.114;9.130;2023-08-06T02:02:23;4.23;;;3.83;;
5684;SDS011;2865;53.114;9.130;2023-08-06T02:04:48;5.93;;;3.70;;
5684;SDS011;2865;53.114;9.130;2023-08-06T02:07:13;3.60;;;3.30;;
5684;SDS011;2865;53.114;9.130;2023-08-06T02:09:39;3.23;;;2.93;;
5684;SDS011;2865;53.114;9.130;2023-08-06T02:12:04;5.50;;;3.73;;
5684;SDS011;2865;53.114;9.130;2023-08-06T02:14:31;4.33;;;4.03;;
5684;SDS011;2865;53.114;9.130;2023-08-06T02:16:57;3.87;;;3.53;;
5684;SDS011;2865;53.114;9.130;2023-08-06T02:19:23;3.63;;;3.30;;
5684;SDS011;2865;53.114;9.130;2023-08-06T02:21:48;4.37;;;3.97;;
5684;SDS011;2865;53.114;9.130;2023-08-06T02:24:13;4.87;;;4.00;;
5684;SDS011;2865;53.114;9.130;2023-08-06T02:26:39;4.43;;;4.07;;
5684;SDS011;2865;53.114;9.130;2023-08-06T02:29:04;4.27;;;3.97;;
5684;SDS011;2865;53.114;9.130;2023-08-06T02:31:29;4.43;;;4.03;;
5684;SDS011;2865;53.114;9.130;2023-08-06T02:33:55;3.87;;;3.40;;
5684;SDS011;2865;53.114;9.130;2023-08-06T02:36:20;4.70;;;4.30;;
5684;SDS011;2865;53.114;9.130;2023-08-06T02:38:46;4.20;;;3.40;;
5684;SDS011;2865;53.114;9.130;2023-08-06T02:41:11;4.10;;;3.47;;
5684;SDS011;2865;53.114;9.130;2023-08-06T02:43:36;4.00;;;3.70;;
5684;SDS011;2865;53.114;9.130;2023-08-06T02:46:02;4.43;;;4.03;;
5684;SDS011;2865;53.114;9.130;2023-08-06T02:48:27;4.60;;;4.20;;
5684;SDS011;2865;53.114;9.130;2023-08-06T02:50:56;4.50;;;4.20;;
5684;SDS011;2865;53.114;9.130;2023-08-06T02:53:19;8.70;;;3.63;;
5684;SDS011;2865;53.114;9.130;2023-08-06T02:55:46;4.87;;;3.93;;
5684;SDS011;2865;53.114;9.130;2023-08-06T02:58:11;4.33;;;3.93;;
5684;SDS011;2865;53.114;9.130;2023-08-06T03:00:37;3.70;;;3.40;;
5684;SDS011;2865;53.114;9.130;2023-08-06T03:03:02;4.60;;;4.20;;
5684;SDS011;2865;53.114;9.130;2023-08-06T03:05:27;4.47;;;4.07;;
5684;SDS011;2865;53.114;9.130;2023-08-06T03:07:53;3.90;;;3.60;;
5684;SDS011;2865;53.114;9.130;2023-08-06T03:10:18;4.90;;;3.60;;
5684;SDS011;2865;53.114;9.130;2023-08-06T03:12:43;4.00;;;3.70;;
5684;SDS011;2865;53.114;9.130;2023-08-06T03:15:09;4.00;;;3.70;;
5684;SDS011;2865;53.114;9.130;2023-08-06T03:17:35;4.77;;;4.27;;
5684;SDS011;2865;53.114;9.130;2023-08-06T03:20:00;9.90;;;4.13;;
5684;SDS011;2865;53.114;9.130;2023-08-06T03:22:26;4.10;;;3.80;;
5684;SDS011;2865;53.114;9.130;2023-08-06T03:24:51;5.40;;;4.30;;
5684;SDS011;2865;53.114;9.130;2023-08-06T03:27:16;5.27;;;4.77;;
5684;SDS011;2865;53.114;9.130;2023-08-06T03:29:42;5.30;;;4.80;;
5684;SDS011;2865;53.114;9.130;2023-08-06T03:32:07;5.00;;;4.60;;
5684;SDS011;2865;53.114;9.130;2023-08-06T03:34:33;5.13;;;4.73;;
5684;SDS011;2865;53.114;9.130;2023-08-06T03:36:58;4.40;;;4.07;;
5684;SDS011;2865;53.114;9.130;2023-08-06T03:39:24;4.63;;;4.23;;
5684;SDS011;2865;53.114;9.130;2023-08-06T03:41:49;6.67;;;4.30;;
5684;SDS011;2865;53.114;9.130;2023-08-06T03:44:14;5.43;;;4.93;;
5684;SDS011;2865;53.114;9.130;2023-08-06T03:46:40;6.10;;;4.83;;
5684;SDS011;2865;53.114;9.130;2023-08-06T03:49:05;6.17;;;5.50;;
5684;SDS011;2865;53.114;9.130;2023-08-06T03:51:31;6.97;;;6.07;;
5684;SDS011;2865;53.114;9.130;2023-08-06T03:53:56;7.23;;;5.47;;
5684;SDS011;2865;53.114;9.130;2023-08-06T03:56:22;9.43;;;5.57;;
5684;SDS011;2865;53.114;9.130;2023-08-06T03:58:47;7.23;;;6.20;;
5684;SDS011;2865;53.114;9.130;2023-08-06T04:01:13;5.87;;;4.80;;
5684;SDS011;2865;53.114;9.130;2023-08-06T04:03:38;7.07;;;6.27;;
5684;SDS011;2865;53.114;9.130;2023-08-06T04:06:03;8.60;;;6.33;;
5684;SDS011;2865;53.114;9.130;2023-08-06T04:08:29;9.27;;;6.20;;
5684;SDS011;2865;53.114;9.130;2023-08-06T04:10:54;6.70;;;6.07;;
5684;SDS011;2865;53.114;9.130;2023-08-06T04:13:20;6.53;;;5.70;;
5684;SDS011;2865;53.114;9.130;2023-08-06T04:15:45;6.43;;;5.83;;
5684;SDS011;2865;53.114;9.130;2023-08-06T04:18:11;6.20;;;5.60;;
5684;SDS011;2865;53.114;9.130;2023-08-06T04:20:43;7.20;;;5.70;;
5684;SDS011;2865;53.114;9.130;2023-08-06T04:23:08;6.20;;;5.37;;
5684;SDS011;2865;53.114;9.130;2023-08-06T04:25:33;8.60;;;6.10;;
5684;SDS011;2865;53.114;9.130;2023-08-06T04:27:59;8.33;;;6.70;;
5684;SDS011;2865;53.114;9.130;2023-08-06T04:30:24;9.00;;;5.90;;
5684;SDS011;2865;53.114;9.130;2023-08-06T04:32:50;6.97;;;6.17;;
5684;SDS011;2865;53.114;9.130;2023-08-06T04:35:15;7.80;;;6.77;;
5684;SDS011;2865;53.114;9.130;2023-08-06T04:37:41;7.20;;;6.30;;
5684;SDS011;2865;53.114;9.130;2023-08-06T04:40:06;7.37;;;6.10;;
5684;SDS011;2865;53.114;9.130;2023-08-06T04:42:32;7.67;;;6.30;;
5684;SDS011;2865;53.114;9.130;2023-08-06T04:44:58;6.50;;;5.63;;
5684;SDS011;2865;53.114;9.130;2023-08-06T04:47:23;9.13;;;6.30;;
5684;SDS011;2865;53.114;9.130;2023-08-06T04:49:49;7.33;;;6.30;;
5684;SDS011;2865;53.114;9.130;2023-08-06T04:52:14;7.60;;;5.43;;
5684;SDS011;2865;53.114;9.130;2023-08-06T04:54:39;7.30;;;6.10;;
5684;SDS011;2865;53.114;9.130;2023-08-06T04:57:05;6.03;;;5.37;;
5684;SDS011;2865;53.114;9.130;2023-08-06T04:59:30;6.03;;;5.50;;
5684;SDS011;2865;53.114;9.130;2023-08-06T05:01:55;5.67;;;5.07;;
5684;SDS011;2865;53.114;9.130;2023-08-06T05:04:21;6.53;;;5.77;;
5684;SDS011;2865;53.114;9.130;2023-08-06T05:06:47;7.40;;;6.60;;
5684;SDS011;2865;53.114;9.130;2023-08-06T05:09:12;6.43;;;5.83;;
5684;SDS011;2865;53.114;9.130;2023-08-06T05:11:37;6.40;;;5.80;;
5684;SDS011;2865;53.114;9.130;2023-08-06T05:14:02;7.53;;;6.17;;
5684;SDS011;2865;53.114;9.130;2023-08-06T05:16:28;6.70;;;6.03;;
5684;SDS011;2865;53.114;9.130;2023-08-06T05:18:53;7.47;;;6.50;;
5684;SDS011;2865;53.114;9.130;2023-08-06T05:21:18;6.83;;;6.23;;
5684;SDS011;2865;53.114;9.130;2023-08-06T05:23:44;7.27;;;6.53;;
5684;SDS011;2865;53.114;9.130;2023-08-06T05:26:09;7.67;;;6.07;;
5684;SDS011;2865;53.114;9.130;2023-08-06T05:28:34;7.73;;;7.00;;
5684;SDS011;2865;53.114;9.130;2023-08-06T05:31:03;9.37;;;6.90;;
5684;SDS011;2865;53.114;9.130;2023-08-06T05:33:28;7.60;;;6.53;;
5684;SDS011;2865;53.114;9.130;2023-08-06T05:35:53;7.80;;;6.53;;
5684;SDS011;2865;53.114;9.130;2023-08-06T05:38:19;8.30;;;6.80;;
5684;SDS011;2865;53.114;9.130;2023-08-06T05:40:44;8.80;;;6.70;;
5684;SDS011;2865;53.114;9.130;2023-08-06T05:43:09;8.53;;;6.90;;
5684;SDS011;2865;53.114;9.130;2023-08-06T05:45:35;7.07;;;6.23;;
5684;SDS011;2865;53.114;9.130;2023-08-06T05:48:00;11.00;;;7.37;;
5684;SDS011;2865;53.114;9.130;2023-08-06T05:50:25;7.27;;;6.57;;
5684;SDS011;2865;53.114;9.130;2023-08-06T05:52:51;7.00;;;6.30;;
5684;SDS011;2865;53.114;9.130;2023-08-06T05:55:16;7.93;;;7.13;;
5684;SDS011;2865;53.114;9.130;2023-08-06T05:57:41;7.07;;;6.17;;
5684;SDS011;2865;53.114;9.130;2023-08-06T06:00:07;9.57;;;7.00;;
5684;SDS011;2865;53.114;9.130;2023-08-06T06:02:33;8.23;;;7.23;;
5684;SDS011;2865;53.114;9.130;2023-08-06T06:04:58;7.20;;;6.47;;
5684;SDS011;2865;53.114;9.130;2023-08-06T06:07:24;7.00;;;6.30;;
5684;SDS011;2865;53.114;9.130;2023-08-06T06:09:49;7.07;;;6.37;;
5684;SDS011;2865;53.114;9.130;2023-08-06T06:12:14;7.00;;;6.30;;
5684;SDS011;2865;53.114;9.130;2023-08-06T06:14:40;8.93;;;6.03;;
5684;SDS011;2865;53.114;9.130;2023-08-06T06:17:05;6.77;;;6.07;;
5684;SDS011;2865;53.114;9.130;2023-08-06T06:19:31;7.23;;;6.53;;
5684;SDS011;2865;53.114;9.130;2023-08-06T06:21:57;6.90;;;6.20;;
5684;SDS011;2865;53.114;9.130;2023-08-06T06:24:22;7.60;;;6.80;;
5684;SDS011;2865;53.114;9.130;2023-08-06T06:26:48;6.30;;;5.70;;
5684;SDS011;2865;53.114;9.130;2023-08-06T06:29:13;6.70;;;5.73;;
5684;SDS011;2865;53.114;9.130;2023-08-06T06:31:38;6.20;;;5.60;;
5684;SDS011;2865;53.114;9.130;2023-08-06T06:34:04;8.10;;;5.83;;
5684;SDS011;2865;53.114;9.130;2023-08-06T06:36:29;6.87;;;5.93;;
5684;SDS011;2865;53.114;9.130;2023-08-06T06:38:54;6.50;;;5.90;;
5684;SDS011;2865;53.114;9.130;2023-08-06T06:41:20;5.97;;;5.37;;
5684;SDS011;2865;53.114;9.130;2023-08-06T06:43:45;6.00;;;5.40;;
5684;SDS011;2865;53.114;9.130;2023-08-06T06:46:10;6.93;;;6.20;;
5684;SDS011;2865;53.114;9.130;2023-08-06T06:48:36;7.07;;;6.37;;
5684;SDS011;2865;53.114;9.130;2023-08-06T06:51:02;6.50;;;5.90;;
5684;SDS011;2865;53.114;9.130;2023-08-06T06:53:27;6.80;;;6.20;;
5684;SDS011;2865;53.114;9.130;2023-08-06T06:56:01;5.63;;;5.13;;
5684;SDS011;2865;53.114;9.130;2023-08-06T06:58:22;6.40;;;5.80;;
5684;SDS011;2865;53.114;9.130;2023-08-06T07:00:47;5.87;;;5.37;;
5684;SDS011;2865;53.114;9.130;2023-08-06T07:03:12;8.47;;;5.00;;
5684;SDS011;2865;53.114;9.130;2023-08-06T07:05:38;6.60;;;5.93;;
5684;SDS011;2865;53.114;9.130;2023-08-06T07:08:03;7.43;;;5.97;;
5684;SDS011;2865;53.114;9.130;2023-08-06T07:10:29;10.13;;;5.30;;
5684;SDS011;2865;53.114;9.130;2023-08-06T07:12:54;5.70;;;5.20;;
5684;SDS011;2865;53.114;9.130;2023-08-06T07:15:20;5.33;;;4.20;;
5684;SDS011;2865;53.114;9.130;2023-08-06T07:17:45;6.40;;;5.80;;
5684;SDS011;2865;53.114;9.130;2023-08-06T07:20:10;5.93;;;5.40;;
5684;SDS011;2865;53.114;9.130;2023-08-06T07:22:36;5.60;;;5.10;;
5684;SDS011;2865;53.114;9.130;2023-08-06T07:25:01;6.23;;;5.63;;
5684;SDS011;2865;53.114;9.130;2023-08-06T07:27:27;5.80;;;5.30;;
5684;SDS011;2865;53.114;9.130;2023-08-06T07:29:52;6.53;;;4.87;;
5684;SDS011;2865;53.114;9.130;2023-08-06T07:32:18;5.33;;;4.87;;
5684;SDS011;2865;53.114;9.130;2023-08-06T07:34:43;5.40;;;5.00;;
5684;SDS011;2865;53.114;9.130;2023-08-06T07:37:09;5.50;;;4.83;;
5684;SDS011;2865;53.114;9.130;2023-08-06T07:39:34;4.77;;;4.37;;
5684;SDS011;2865;53.114;9.130;2023-08-06T07:41:59;7.93;;;5.07;;
5684;SDS011;2865;53.114;9.130;2023-08-06T07:44:25;5.30;;;4.77;;
5684;SDS011;2865;53.114;9.130;2023-08-06T07:46:51;4.90;;;4.50;;
5684;SDS011;2865;53.114;9.130;2023-08-06T07:49:16;4.77;;;4.40;;
5684;SDS011;2865;53.114;9.130;2023-08-06T07:51:41;4.20;;;3.90;;
5684;SDS011;2865;53.114;9.130;2023-08-06T07:54:07;6.77;;;4.93;;
5684;SDS011;2865;53.114;9.130;2023-08-06T07:56:33;6.37;;;5.07;;
5684;SDS011;2865;53.114;9.130;2023-08-06T07:58:58;6.37;;;5.77;;
5684;SDS011;2865;53.114;9.130;2023-08-06T08:01:23;5.80;;;5.27;;
5684;SDS011;2865;53.114;9.130;2023-08-06T08:03:49;5.50;;;5.00;;
5684;SDS011;2865;53.114;9.130;2023-08-06T08:06:14;5.47;;;5.00;;
5684;SDS011;2865;53.114;9.130;2023-08-06T08:08:40;6.10;;;5.50;;
5684;SDS011;2865;53.114;9.130;2023-08-06T08:11:05;7.23;;;6.63;;
5684;SDS011;2865;53.114;9.130;2023-08-06T08:13:31;6.27;;;5.67;;
5684;SDS011;2865;53.114;9.130;2023-08-06T08:15:57;6.50;;;5.90;;
5684;SDS011;2865;53.114;9.130;2023-08-06T08:18:22;7.00;;;6.40;;
5684;SDS011;2865;53.114;9.130;2023-08-06T08:20:48;7.13;;;6.47;;
5684;SDS011;2865;53.114;9.130;2023-08-06T08:23:13;7.60;;;6.70;;
5684;SDS011;2865;53.114;9.130;2023-08-06T08:25:39;6.53;;;5.93;;
5684;SDS011;2865;53.114;9.130;2023-08-06T08:28:04;7.90;;;7.20;;
5684;SDS011;2865;53.114;9.130;2023-08-06T08:30:30;9.00;;;7.93;;
5684;SDS011;2865;53.114;9.130;2023-08-06T08:32:55;8.90;;;8.00;;
5684;SDS011;2865;53.114;9.130;2023-08-06T08:35:21;6.60;;;6.00;;
5684;SDS011;2865;53.114;9.130;2023-08-06T08:37:47;6.33;;;5.50;;
5684;SDS011;2865;53.114;9.130;2023-08-06T08:40:13;5.63;;;5.17;;
5684;SDS011;2865;53.114;9.130;2023-08-06T08:42:38;4.53;;;4.13;;
5684;SDS011;2865;53.114;9.130;2023-08-06T08:45:04;5.17;;;4.70;;
5684;SDS011;2865;53.114;9.130;2023-08-06T08:47:30;4.40;;;4.07;;
5684;SDS011;2865;53.114;9.130;2023-08-06T08:49:55;4.87;;;4.47;;
5684;SDS011;2865;53.114;9.130;2023-08-06T08:52:21;4.97;;;3.50;;
5684;SDS011;2865;53.114;9.130;2023-08-06T08:54:46;5.13;;;4.73;;
5684;SDS011;2865;53.114;9.130;2023-08-06T08:57:12;4.53;;;4.17;;
5684;SDS011;2865;53.114;9.130;2023-08-06T08:59:37;4.17;;;3.87;;
5684;SDS011;2865;53.114;9.130;2023-08-06T09:02:02;6.73;;;3.73;;
5684;SDS011;2865;53.114;9.130;2023-08-06T09:04:29;4.10;;;3.80;;
5684;SDS011;2865;53.114;9.130;2023-08-06T09:06:54;3.97;;;3.67;;
5684;SDS011;2865;53.114;9.130;2023-08-06T09:09:22;3.83;;;3.53;;
5684;SDS011;2865;53.114;9.130;2023-08-06T09:11:45;3.50;;;3.20;;
5684;SDS011;2865;53.114;9.130;2023-08-06T09:14:11;3.23;;;3.03;;
5684;SDS011;2865;53.114;9.130;2023-08-06T09:16:36;6.33;;;3.87;;
5684;SDS011;2865;53.114;9.130;2023-08-06T09:19:07;3.80;;;3.50;;
5684;SDS011;2865;53.114;9.130;2023-08-06T09:21:36;3.50;;;3.30;;
5684;SDS011;2865;53.114;9.130;2023-08-06T09:23:59;3.80;;;3.50;;
5684;SDS011;2865;53.114;9.130;2023-08-06T09:26:32;3.67;;;3.37;;
5684;SDS011;2865;53.114;9.130;2023-08-06T09:28:51;3.07;;;2.87;;
5684;SDS011;2865;53.114;9.130;2023-08-06T09:31:16;3.10;;;2.90;;
5684;SDS011;2865;53.114;9.130;2023-08-06T09:33:41;3.87;;;3.57;;
5684;SDS011;2865;53.114;9.130;2023-08-06T09:36:07;3.53;;;2.50;;
5684;SDS011;2865;53.114;9.130;2023-08-06T09:38:37;3.60;;;3.30;;
5684;SDS011;2865;53.114;9.130;2023-08-06T09:40:57;3.10;;;2.90;;
5684;SDS011;2865;53.114;9.130;2023-08-06T09:43:23;3.27;;;2.97;;
5684;SDS011;2865;53.114;9.130;2023-08-06T09:45:48;3.70;;;3.10;;
5684;SDS011;2865;53.114;9.130;2023-08-06T09:48:14;2.43;;;1.80;;
5684;SDS011;2865;53.114;9.130;2023-08-06T09:50:39;2.43;;;2.23;;
5684;SDS011;2865;53.114;9.130;2023-08-06T09:53:05;2.10;;;2.00;;
5684;SDS011;2865;53.114;9.130;2023-08-06T09:55:30;2.20;;;2.10;;
5684;SDS011;2865;53.114;9.130;2023-08-06T09:57:55;2.33;;;2.13;;
5684;SDS011;2865;53.114;9.130;2023-08-06T10:00:21;3.73;;;2.50;;
5684;SDS011;2865;53.114;9.130;2023-08-06T10:02:46;2.20;;;2.00;;
5684;SDS011;2865;53.114;9.130;2023-08-06T10:05:12;1.70;;;1.60;;
5684;SDS011;2865;53.114;9.130;2023-08-06T10:07:38;2.50;;;2.40;;
5684;SDS011;2865;53.114;9.130;2023-08-06T10:10:04;2.33;;;2.13;;
5684;SDS011;2865;53.114;9.130;2023-08-06T10:12:31;4.20;;;1.90;;
5684;SDS011;2865;53.114;9.130;2023-08-06T10:14:57;3.10;;;2.90;;
5684;SDS011;2865;53.114;9.130;2023-08-06T10:17:21;2.33;;;1.90;;
5684;SDS011;2865;53.114;9.130;2023-08-06T10:19:47;1.90;;;1.80;;
5684;SDS011;2865;53.114;9.130;2023-08-06T10:22:13;2.10;;;1.90;;
5684;SDS011;2865;53.114;9.130;2023-08-06T10:27:11;2.37;;;2.17;;
5684;SDS011;2865;53.114;9.130;2023-08-06T10:29:38;1.70;;;1.60;;
5684;SDS011;2865;53.114;9.130;2023-08-06T10:32:03;1.70;;;1.60;;
5684;SDS011;2865;53.114;9.130;2023-08-06T10:37:09;4.03;;;1.77;;
5684;SDS011;2865;53.114;9.130;2023-08-06T10:39:33;3.30;;;2.10;;
5684;SDS011;2865;53.114;9.130;2023-08-06T10:41:59;1.77;;;1.67;;
5684;SDS011;2865;53.114;9.130;2023-08-06T10:44:24;1.93;;;1.83;;
5684;SDS011;2865;53.114;9.130;2023-08-06T10:46:49;1.90;;;1.80;;
5684;SDS011;2865;53.114;9.130;2023-08-06T10:49:16;2.10;;;2.00;;
5684;SDS011;2865;53.114;9.130;2023-08-06T10:51:40;2.97;;;1.80;;
5684;SDS011;2865;53.114;9.130;2023-08-06T10:54:06;1.83;;;1.30;;
5684;SDS011;2865;53.114;9.130;2023-08-06T10:56:31;2.13;;;1.93;;
5684;SDS011;2865;53.114;9.130;2023-08-06T10:58:57;6.30;;;1.73;;
5684;SDS011;2865;53.114;9.130;2023-08-06T11:01:22;1.93;;;1.83;;
5684;SDS011;2865;53.114;9.130;2023-08-06T11:03:47;1.90;;;1.80;;
5684;SDS011;2865;53.114;9.130;2023-08-06T11:06:17;2.50;;;1.90;;
5684;SDS011;2865;53.114;9.130;2023-08-06T11:08:46;1.87;;;1.77;;
5684;SDS011;2865;53.114;9.130;2023-08-06T11:11:08;1.97;;;1.87;;
5684;SDS011;2865;53.114;9.130;2023-08-06T11:13:34;3.00;;;2.23;;
5684;SDS011;2865;53.114;9.130;2023-08-06T11:16:00;2.17;;;1.97;;
5684;SDS011;2865;53.114;9.130;2023-08-06T11:18:25;2.10;;;1.90;;
5684;SDS011;2865;53.114;9.130;2023-08-06T11:20:51;1.80;;;1.70;;
5684;SDS011;2865;53.114;9.130;2023-08-06T11:23:16;2.10;;;1.77;;
5684;SDS011;2865;53.114;9.130;2023-08-06T11:25:44;7.63;;;2.23;;
5684;SDS011;2865;53.114;9.130;2023-08-06T11:28:09;1.60;;;1.50;;
5684;SDS011;2865;53.114;9.130;2023-08-06T11:30:34;3.13;;;1.27;;
5684;SDS011;2865;53.114;9.130;2023-08-06T11:33:00;1.60;;;1.50;;
5684;SDS011;2865;53.114;9.130;2023-08-06T11:35:26;2.80;;;1.83;;
5684;SDS011;2865;53.114;9.130;2023-08-06T11:37:51;1.50;;;1.40;;
5684;SDS011;2865;53.114;9.130;2023-08-06T11:40:17;1.40;;;1.30;;
5684;SDS011;2865;53.114;9.130;2023-08-06T11:42:43;2.07;;;1.87;;
5684;SDS011;2865;53.114;9.130;2023-08-06T11:45:08;1.80;;;1.60;;
5684;SDS011;2865;53.114;9.130;2023-08-06T11:47:34;2.07;;;1.90;;
5684;SDS011;2865;53.114;9.130;2023-08-06T11:49:59;1.80;;;1.70;;
5684;SDS011;2865;53.114;9.130;2023-08-06T11:52:25;1.87;;;1.73;;
5684;SDS011;2865;53.114;9.130;2023-08-06T11:57:25;1.90;;;1.80;;
5684;SDS011;2865;53.114;9.130;2023-08-06T11:59:50;2.70;;;1.60;;
5684;SDS011;2865;53.114;9.130;2023-08-06T12:02:16;1.50;;;1.40;;
5684;SDS011;2865;53.114;9.130;2023-08-06T12:07:16;1.30;;;1.20;;
5684;SDS011;2865;53.114;9.130;2023-08-06T12:09:41;1.70;;;1.60;;
5684;SDS011;2865;53.114;9.130;2023-08-06T12:12:06;2.20;;;1.47;;
5684;SDS011;2865;53.114;9.130;2023-08-06T12:14:32;2.47;;;1.60;;
5684;SDS011;2865;53.114;9.130;2023-08-06T12:16:57;2.00;;;1.77;;
5684;SDS011;2865;53.114;9.130;2023-08-06T12:19:22;1.90;;;1.80;;
5684;SDS011;2865;53.114;9.130;2023-08-06T12:21:48;1.50;;;1.33;;
5684;SDS011;2865;53.114;9.130;2023-08-06T12:24:13;1.53;;;1.43;;
5684;SDS011;2865;53.114;9.130;2023-08-06T12:26:38;5.37;;;1.87;;
5684;SDS011;2865;53.114;9.130;2023-08-06T12:29:04;2.20;;;1.20;;
5684;SDS011;2865;53.114;9.130;2023-08-06T12:31:29;1.60;;;1.50;;
5684;SDS011;2865;53.114;9.130;2023-08-06T12:33:54;3.87;;;1.50;;
5684;SDS011;2865;53.114;9.130;2023-08-06T12:36:20;1.70;;;1.47;;
5684;SDS011;2865;53.114;9.130;2023-08-06T12:38:45;3.30;;;2.00;;
5684;SDS011;2865;53.114;9.130;2023-08-06T12:41:11;4.23;;;1.63;;
5684;SDS011;2865;53.114;9.130;2023-08-06T12:43:36;2.10;;;1.50;;
5684;SDS011;2865;53.114;9.130;2023-08-06T12:46:01;1.40;;;1.30;;
5684;SDS011;2865;53.114;9.130;2023-08-06T12:48:27;2.97;;;1.90;;
5684;SDS011;2865;53.114;9.130;2023-08-06T12:50:52;1.63;;;1.53;;
5684;SDS011;2865;53.114;9.130;2023-08-06T12:53:17;2.30;;;1.10;;
5684;SDS011;2865;53.114;9.130;2023-08-06T12:55:43;1.80;;;1.70;;
5684;SDS011;2865;53.114;9.130;2023-08-06T12:58:08;1.93;;;1.37;;
5684;SDS011;2865;53.114;9.130;2023-08-06T13:00:34;1.57;;;1.10;;
5684;SDS011;2865;53.114;9.130;2023-08-06T13:02:59;2.00;;;1.77;;
5684;SDS011;2865;53.114;9.130;2023-08-06T13:05:24;1.73;;;1.63;;
5684;SDS011;2865;53.114;9.130;2023-08-06T13:07:58;1.17;;;1.07;;
5684;SDS011;2865;53.114;9.130;2023-08-06T13:10:23;1.83;;;1.73;;
5684;SDS011;2865;53.114;9.130;2023-08-06T13:12:49;1.70;;;1.60;;
5684;SDS011;2865;53.114;9.130;2023-08-06T13:15:15;1.53;;;1.33;;
5684;SDS011;2865;53.114;9.130;2023-08-06T13:17:41;1.80;;;1.70;;
5684;SDS011;2865;53.114;9.130;2023-08-06T13:20:06;4.73;;;2.73;;
5684;SDS011;2865;53.114;9.130;2023-08-06T13:22:32;1.50;;;1.40;;
5684;SDS011;2865;53.114;9.130;2023-08-06T13:24:58;1.57;;;1.43;;
5684;SDS011;2865;53.114;9.130;2023-08-06T13:27:23;3.33;;;1.50;;
5684;SDS011;2865;53.114;9.130;2023-08-06T13:29:49;1.30;;;1.20;;
5684;SDS011;2865;53.114;9.130;2023-08-06T13:32:14;1.60;;;1.50;;
5684;SDS011;2865;53.114;9.130;2023-08-06T13:34:40;1.93;;;1.73;;
5684;SDS011;2865;53.114;9.130;2023-08-06T13:37:05;1.60;;;1.50;;
5684;SDS011;2865;53.114;9.130;2023-08-06T13:39:30;1.53;;;1.30;;
5684;SDS011;2865;53.114;9.130;2023-08-06T13:41:56;8.00;;;1.50;;
5684;SDS011;2865;53.114;9.130;2023-08-06T13:44:21;1.30;;;1.20;;
5684;SDS011;2865;53.114;9.130;2023-08-06T13:46:47;1.67;;;1.40;;
5684;SDS011;2865;53.114;9.130;2023-08-06T13:49:12;1.70;;;1.60;;
5684;SDS011;2865;53.114;9.130;2023-08-06T13:51:38;1.60;;;1.50;;
5684;SDS011;2865;53.114;9.130;2023-08-06T13:54:03;2.33;;;1.60;;
5684;SDS011;2865;53.114;9.130;2023-08-06T13:56:28;3.23;;;2.37;;
5684;SDS011;2865;53.114;9.130;2023-08-06T13:58:54;2.97;;;2.10;;
5684;SDS011;2865;53.114;9.130;2023-08-06T14:01:19;2.50;;;2.30;;
5684;SDS011;2865;53.114;9.130;2023-08-06T14:03:44;2.93;;;2.73;;
5684;SDS011;2865;53.114;9.130;2023-08-06T14:06:10;3.10;;;2.87;;
5684;SDS011;2865;53.114;9.130;2023-08-06T14:08:35;2.77;;;2.50;;
5684;SDS011;2865;53.114;9.130;2023-08-06T14:11:01;4.43;;;3.13;;
5684;SDS011;2865;53.114;9.130;2023-08-06T14:13:26;4.07;;;3.20;;
5684;SDS011;2865;53.114;9.130;2023-08-06T14:15:52;4.30;;;2.77;;
5684;SDS011;2865;53.114;9.130;2023-08-06T14:18:17;3.60;;;3.30;;
5684;SDS011;2865;53.114;9.130;2023-08-06T14:20:43;2.77;;;2.57;;
5684;SDS011;2865;53.114;9.130;2023-08-06T14:23:08;2.43;;;2.23;;
5684;SDS011;2865;53.114;9.130;2023-08-06T14:25:33;4.13;;;2.47;;
5684;SDS011;2865;53.114;9.130;2023-08-06T14:27:59;3.50;;;2.47;;
5684;SDS011;2865;53.114;9.130;2023-08-06T14:30:24;2.60;;;2.17;;
5684;SDS011;2865;53.114;9.130;2023-08-06T14:32:49;2.73;;;2.53;;
5684;SDS011;2865;53.114;9.130;2023-08-06T14:35:15;2.57;;;2.43;;
5684;SDS011;2865;53.114;9.130;2023-08-06T14:37:40;2.70;;;2.50;;
5684;SDS011;2865;53.114;9.130;2023-08-06T14:40:06;2.70;;;2.50;;
5684;SDS011;2865;53.114;9.130;2023-08-06T14:42:32;3.03;;;2.60;;
5684;SDS011;2865;53.114;9.130;2023-08-06T14:44:57;2.10;;;1.90;;
5684;SDS011;2865;53.114;9.130;2023-08-06T14:47:23;2.40;;;2.20;;
5684;SDS011;2865;53.114;9.130;2023-08-06T14:49:48;2.70;;;2.50;;
5684;SDS011;2865;53.114;9.130;2023-08-06T14:52:13;3.20;;;2.90;;
5684;SDS011;2865;53.114;9.130;2023-08-06T14:54:39;3.70;;;2.17;;
5684;SDS011;2865;53.114;9.130;2023-08-06T14:57:04;2.60;;;2.40;;
5684;SDS011;2865;53.114;9.130;2023-08-06T14:59:30;2.40;;;2.27;;
5684;SDS011;2865;53.114;9.130;2023-08-06T15:01:55;2.60;;;2.40;;
5684;SDS011;2865;53.114;9.130;2023-08-06T15:04:20;4.77;;;3.10;;
5684;SDS011;2865;53.114;9.130;2023-08-06T15:06:46;3.10;;;2.50;;
5684;SDS011;2865;53.114;9.130;2023-08-06T15:09:11;3.93;;;2.00;;
5684;SDS011;2865;53.114;9.130;2023-08-06T15:11:36;2.67;;;2.43;;
5684;SDS011;2865;53.114;9.130;2023-08-06T15:14:02;2.67;;;2.47;;
5684;SDS011;2865;53.114;9.130;2023-08-06T15:16:27;2.20;;;2.10;;
5684;SDS011;2865;53.114;9.130;2023-08-06T15:18:53;1.87;;;1.77;;